Time;durP1;ratioP1;P1;durP2;ratioP2;P2;SDS_P1;SDS_P2;PMS_P1;PMS_P2;Temp;Humidity;BMP_temperature;BMP_pressure;BME280_temperature;BME280_humidity;BME280_pressure;Samples;Min_cycle;Max_cycle;Signal;HPM_P1;HPM_P2
2021/03/29 00:04:40;;;;;;;8.13;3.23;;;;;9.10;102211.00;;;;9638557;30;20295;-76
2021/03/29 00:09:43;;;;;;;9.00;3.10;;;;;9.50;102212.00;;;;9624615;30;20216;-76
2021/03/29 00:14:46;;;;;;;11.30;4.03;;;;;9.70;102216.00;;;;9638339;30;20328;-77
2021/03/29 00:19:47;;;;;;;11.27;3.63;;;;;9.90;102204.00;;;;9638046;30;20296;-77
2021/03/29 00:24:50;;;;;;;8.80;3.43;;;;;10.10;102199.00;;;;9623760;30;20210;-76
2021/03/29 00:29:51;;;;;;;8.20;3.20;;;;;10.20;102207.00;;;;9616753;30;20218;-76
2021/03/29 00:34:54;;;;;;;13.17;3.63;;;;;10.30;102197.00;;;;9588069;31;20316;-76
2021/03/29 00:39:57;;;;;;;6.13;2.60;;;;;10.50;102191.00;;;;9602228;30;20294;-77
2021/03/29 00:44:58;;;;;;;8.40;2.90;;;;;10.50;102189.00;;;;9588334;30;20265;-76
2021/03/29 00:50:01;;;;;;;8.30;3.30;;;;;10.50;102191.00;;;;9615972;30;20775;-76
2021/03/29 00:55:04;;;;;;;6.63;2.77;;;;;10.50;102193.00;;;;9590472;30;20222;-76
2021/03/29 01:00:24;;;;;;;7.67;3.10;;;;;10.50;102195.00;;;;9621276;30;20237;-77
2021/03/29 01:05:26;;;;;;;7.40;2.43;;;;;10.50;102190.00;;;;9608754;30;20205;-76
2021/03/29 01:10:27;;;;;;;9.50;2.77;;;;;10.50;102186.00;;;;9623559;30;20200;-76
2021/03/29 01:15:29;;;;;;;10.53;3.33;;;;;10.50;102187.00;;;;9621949;30;20229;-76
2021/03/29 01:20:39;;;;;;;11.73;3.20;;;;;10.50;102187.00;;;;9622423;30;20227;-76
2021/03/29 01:25:41;;;;;;;9.23;2.87;;;;;10.60;102192.00;;;;9607322;30;20232;-76
2021/03/29 01:30:44;;;;;;;7.93;3.40;;;;;10.80;102194.00;;;;9608146;30;20212;-76
2021/03/29 01:36:02;;;;;;;7.23;3.10;;;;;10.80;102192.00;;;;9593501;30;20296;-76
2021/03/29 01:41:04;;;;;;;10.27;3.33;;;;;10.90;102200.00;;;;9592881;30;20669;-77
2021/03/29 01:46:06;;;;;;;10.83;2.77;;;;;10.80;102198.00;;;;9620930;30;20232;-76
2021/03/29 01:51:08;;;;;;;8.27;2.97;;;;;10.70;102199.00;;;;9633525;30;20225;-76
2021/03/29 01:56:09;;;;;;;4.33;2.27;;;;;10.60;102193.00;;;;9633670;30;20262;-76
2021/03/29 02:01:12;;;;;;;11.23;2.63;;;;;10.60;102195.00;;;;9634564;30;20241;-76
2021/03/29 02:06:14;;;;;;;9.00;3.17;;;;;10.60;102197.00;;;;9621521;30;20662;-76
2021/03/29 02:11:18;;;;;;;5.60;2.73;;;;;10.50;102198.00;;;;9620202;30;20220;-76
2021/03/29 02:16:21;;;;;;;6.47;2.40;;;;;10.40;102198.00;;;;9619737;30;20236;-76
2021/03/29 02:21:25;;;;;;;8.67;2.43;;;;;10.30;102202.00;;;;9605466;30;20224;-76
2021/03/29 02:26:28;;;;;;;10.47;3.33;;;;;10.20;102198.00;;;;9591568;30;20217;-76
2021/03/29 02:31:30;;;;;;;6.37;2.40;;;;;10.10;102199.00;;;;9619187;30;20221;-76
2021/03/29 02:36:32;;;;;;;7.93;2.80;;;;;10.30;102189.00;;;;9621049;30;20204;-76
2021/03/29 02:41:33;;;;;;;9.90;3.30;;;;;10.20;102188.00;;;;9591322;30;20209;-76
2021/03/29 02:46:35;;;;;;;7.90;2.90;;;;;10.30;102196.00;;;;9604948;30;20220;-76
2021/03/29 02:51:41;;;;;;;5.10;2.30;;;;;10.30;102195.00;;;;9618568;30;20244;-76
2021/03/29 02:56:45;;;;;;;7.70;2.67;;;;;10.20;102190.00;;;;9633210;30;20651;-76
2021/03/29 03:01:48;;;;;;;8.07;2.83;;;;;10.10;102196.00;;;;9632844;30;20201;-76
2021/03/29 03:06:50;;;;;;;7.47;2.40;;;;;10.10;102191.00;;;;9618563;30;20209;-76
2021/03/29 03:11:52;;;;;;;10.70;2.83;;;;;10.10;102192.00;;;;9632835;30;20232;-76
2021/03/29 03:16:53;;;;;;;9.30;2.80;;;;;10.00;102192.00;;;;9633315;30;20209;-76
2021/03/29 03:21:54;;;;;;;8.27;2.87;;;;;9.90;102183.00;;;;9631345;30;20607;-76
2021/03/29 03:26:56;;;;;;;7.40;2.77;;;;;9.90;102183.00;;;;9618430;30;20267;-76
2021/03/29 03:31:57;;;;;;;10.43;2.57;;;;;10.00;102181.00;;;;9618256;30;20315;-76
2021/03/29 03:36:59;;;;;;;6.30;2.17;;;;;10.10;102187.00;;;;9604486;30;20212;-76
2021/03/29 03:42:01;;;;;;;5.57;2.60;;;;;10.10;102185.00;;;;9617366;30;20216;-76
2021/03/29 03:47:04;;;;;;;7.03;2.60;;;;;10.10;102183.00;;;;9602509;30;20663;-76
2021/03/29 03:52:07;;;;;;;7.87;2.83;;;;;10.10;102188.00;;;;9631744;30;20229;-76
2021/03/29 03:57:09;;;;;;;7.97;2.77;;;;;10.10;102188.00;;;;9631783;30;20959;-76
2021/03/29 04:02:11;;;;;;;4.70;2.50;;;;;10.10;102186.00;;;;9618455;30;20662;-76
2021/03/29 04:07:12;;;;;;;10.30;2.50;;;;;10.10;102198.00;;;;9582381;30;20214;-76
2021/03/29 04:12:14;;;;;;;7.90;2.77;;;;;10.00;102201.00;;;;9612266;30;20247;-77
2021/03/29 04:17:15;;;;;;;9.30;2.40;;;;;9.90;102200.00;;;;9603831;30;20602;-76
2021/03/29 04:22:17;;;;;;;8.50;2.80;;;;;9.90;102201.00;;;;9631663;30;20213;-76
2021/03/29 04:27:18;;;;;;;7.40;2.83;;;;;9.80;102209.00;;;;9631634;30;20228;-76
2021/03/29 04:32:19;;;;;;;7.30;2.67;;;;;9.60;102213.00;;;;9631051;30;20232;-76
2021/03/29 04:37:20;;;;;;;7.37;2.63;;;;;9.40;102209.00;;;;9601854;30;20202;-76
2021/03/29 04:42:22;;;;;;;7.53;2.20;;;;;9.10;102220.00;;;;9618518;30;20209;-76
2021/03/29 04:47:23;;;;;;;11.87;3.23;;;;;8.90;102219.00;;;;9637537;30;20205;-76
2021/03/29 04:52:25;;;;;;;9.83;3.47;;;;;8.70;102223.00;;;;9622746;30;20251;-76
2021/03/29 04:57:27;;;;;;;9.93;3.00;;;;;8.60;102218.00;;;;9636264;30;20327;-76
2021/03/29 05:02:28;;;;;;;6.57;3.10;;;;;8.60;102225.00;;;;9623232;30;20208;-76
2021/03/29 05:07:30;;;;;;;13.03;3.33;;;;;8.60;102223.00;;;;9593999;30;20260;-76
2021/03/29 05:12:31;;;;;;;9.67;3.10;;;;;8.60;102233.00;;;;9636409;30;20225;-76
2021/03/29 05:17:33;;;;;;;10.30;3.30;;;;;8.50;102228.00;;;;9621815;30;20221;-76
2021/03/29 05:22:34;;;;;;;6.17;2.63;;;;;8.50;102234.00;;;;9593939;30;20206;-76
2021/03/29 05:27:36;;;;;;;8.93;2.90;;;;;8.40;102237.00;;;;9587467;30;20214;-76
2021/03/29 05:32:37;;;;;;;11.77;3.10;;;;;8.40;102236.00;;;;9600212;30;20229;-76
2021/03/29 05:37:38;;;;;;;8.43;2.80;;;;;8.40;102244.00;;;;9634662;30;20205;-76
2021/03/29 05:42:40;;;;;;;8.07;3.03;;;;;8.60;102247.00;;;;9607401;30;20232;-76
2021/03/29 05:47:41;;;;;;;10.40;2.87;;;;;8.80;102244.00;;;;9634681;30;20202;-76
2021/03/29 05:52:44;;;;;;;9.23;3.20;;;;;8.90;102259.00;;;;9606737;30;20299;-76
2021/03/29 06:02:50;;;;;;;11.43;3.23;;;;;9.20;102266.00;;;;9620845;30;20308;-77
2021/03/29 06:07:58;;;;;;;8.00;3.10;;;;;9.60;102279.00;;;;9621046;30;20217;-76
2021/03/29 06:13:13;;;;;;;7.43;2.97;;;;;9.90;102288.00;;;;9603674;30;20269;-76
2021/03/29 06:18:16;;;;;;;9.03;3.40;;;;;9.90;102282.00;;;;9630638;30;20263;-76
2021/03/29 06:23:17;;;;;;;10.03;3.93;;;;;10.00;102281.00;;;;9617404;30;20205;-77
2021/03/29 06:28:26;;;;;;;8.73;3.57;;;;;10.30;102289.00;;;;9619693;30;21067;-77
2021/03/29 06:33:28;;;;;;;10.07;3.33;;;;;10.60;102291.00;;;;9634090;30;20280;-77
2021/03/29 06:38:33;;;;;;;10.07;2.73;;;;;10.90;102297.00;;;;9618098;30;20291;-76
2021/03/29 06:43:34;;;;;;;12.27;3.20;;;;;11.50;102285.00;;;;9615046;30;20675;-77
2021/03/29 06:48:38;;;;;;;9.37;3.20;;;;;12.10;102283.00;;;;9632955;30;20205;-77
2021/03/29 06:54:02;;;;;;;12.13;3.10;;;;;12.70;102289.00;;;;9618583;30;20217;-77
2021/03/29 06:59:03;;;;;;;9.97;3.03;;;;;13.10;102292.00;;;;9629982;30;20236;-76
2021/03/29 07:04:05;;;;;;;8.57;3.00;;;;;13.50;102294.00;;;;9617896;30;20738;-76
2021/03/29 07:09:07;;;;;;;5.60;2.63;;;;;13.80;102308.00;;;;9622739;30;20717;-76
2021/03/29 07:14:09;;;;;;;8.67;2.40;;;;;14.10;102302.00;;;;9609410;30;20221;-77
2021/03/29 07:19:11;;;;;;;11.67;3.77;;;;;14.40;102314.00;;;;9620424;30;20952;-77
2021/03/29 07:24:13;;;;;;;6.87;2.70;;;;;14.50;102311.00;;;;9617496;30;20209;-78
2021/03/29 07:29:22;;;;;;;8.57;2.50;;;;;14.70;102313.00;;;;9617066;30;20209;-77
2021/03/29 07:34:51;;;;;;;10.90;3.83;;;;;15.00;102315.00;;;;9611232;30;20224;-77
2021/03/29 07:39:53;;;;;;;10.37;3.70;;;;;15.20;102324.00;;;;9604139;30;20678;-77
2021/03/29 07:44:57;;;;;;;8.37;3.23;;;;;15.50;102316.00;;;;9616148;30;20198;-77
2021/03/29 07:49:58;;;;;;;10.57;3.90;;;;;15.70;102318.00;;;;9588925;30;20213;-77
2021/03/29 07:55:14;;;;;;;7.80;3.53;;;;;15.90;102317.00;;;;9618457;30;20210;-77
2021/03/29 08:00:22;;;;;;;10.97;3.60;;;;;16.10;102339.00;;;;9615418;30;20234;-77
2021/03/29 08:05:46;;;;;;;10.73;3.50;;;;;16.40;102338.00;;;;9612336;30;20240;-76
2021/03/29 08:11:03;;;;;;;9.48;3.33;;;;;16.60;102340.00;;;;9620871;30;20267;-77
2021/03/29 08:16:05;;;;;;;5.97;2.80;;;;;16.90;102343.00;;;;9622076;30;20282;-76
2021/03/29 08:21:45;;;;;;;7.10;3.40;;;;;17.20;102364.00;;;;9615750;30;20224;-77
2021/03/29 08:26:48;;;;;;;5.47;2.90;;;;;17.50;102357.00;;;;9622432;30;20622;-77
2021/03/29 08:32:03;;;;;;;7.03;3.13;;;;;17.90;102370.00;;;;9633898;30;20221;-76
2021/03/29 08:37:06;;;;;;;9.40;3.15;;;;;18.00;102375.00;;;;9639238;30;20205;-77
2021/03/29 08:42:12;;;;;;;9.35;3.75;;;;;18.20;102372.00;;;;9603716;30;20212;-77
2021/03/29 08:47:19;;;;;;;12.10;3.38;;;;;18.50;102387.00;;;;9614316;30;20213;-77
2021/03/29 08:52:21;;;;;;;14.63;3.97;;;;;18.80;102394.00;;;;9630540;30;20228;-77
2021/03/29 08:57:26;;;;;;;10.95;3.90;;;;;19.10;102399.00;;;;9654331;30;20249;-78
2021/03/29 09:02:28;;;;;;;14.32;4.03;;;;;19.20;102407.00;;;;9617976;30;20202;-77
2021/03/29 09:07:42;;;;;;;9.77;3.80;;;;;19.30;102424.00;;;;9609246;30;20892;-77
2021/03/29 09:12:45;;;;;;;9.13;4.10;;;;;19.40;102419.00;;;;9614651;30;20753;-76
2021/03/29 09:17:55;;;;;;;8.55;3.58;;;;;19.60;102424.00;;;;9606260;30;20201;-77
2021/03/29 09:22:57;;;;;;;6.88;3.30;;;;;19.80;102427.00;;;;9610318;30;20206;-76
2021/03/29 09:28:11;;;;;;;9.52;3.72;;;;;20.20;102440.00;;;;9611891;30;20210;-76
2021/03/29 09:33:14;;;;;;;6.53;2.90;;;;;20.40;102438.00;;;;9613045;30;20225;-76
2021/03/29 09:38:35;;;;;;;7.57;3.65;;;;;20.50;102440.00;;;;9609023;30;20209;-76
2021/03/29 09:43:41;;;;;;;5.22;2.78;;;;;20.90;102443.00;;;;9606458;30;20284;-75
2021/03/29 09:48:43;;;;;;;8.77;3.10;;;;;21.10;102443.00;;;;9612901;30;20214;-74
2021/03/29 09:53:45;;;;;;;8.23;3.20;;;;;21.30;102452.00;;;;9593076;30;20210;-75
2021/03/29 09:58:48;;;;;;;8.95;3.20;;;;;21.50;102457.00;;;;9627272;30;20247;-75
2021/03/29 10:03:58;;;;;;;7.82;3.33;;;;;21.70;102464.00;;;;9615292;30;20209;-75
2021/03/29 10:09:07;;;;;;;5.80;3.10;;;;;22.00;102468.00;;;;9620236;30;20552;-75
2021/03/29 10:14:08;;;;;;;8.75;3.22;;;;;22.30;102464.00;;;;9617791;30;20221;-75
2021/03/29 10:19:14;;;;;;;6.32;3.00;;;;;22.30;102470.00;;;;9616729;30;20311;-75
2021/03/29 10:24:16;;;;;;;6.65;2.67;;;;;22.40;102466.00;;;;9598668;30;20216;-73
2021/03/29 10:29:38;;;;;;;6.53;2.90;;;;;22.40;102468.00;;;;9600485;30;20576;-75
2021/03/29 10:34:41;;;;;;;5.60;2.40;;;;;22.70;102473.00;;;;9612246;30;20216;-75
2021/03/29 10:39:42;;;;;;;5.47;2.33;;;;;22.90;102469.00;;;;9616113;30;20256;-75
2021/03/29 10:44:44;;;;;;;6.13;2.30;;;;;23.30;102472.00;;;;9615734;30;20201;-75
2021/03/29 10:49:45;;;;;;;19.13;5.13;;;;;23.50;102473.00;;;;9603773;30;20214;-75
2021/03/29 10:54:49;;;;;;;6.38;2.42;;;;;23.50;102485.00;;;;9615416;30;20217;-75
2021/03/29 10:59:50;;;;;;;5.78;2.30;;;;;23.60;102472.00;;;;9625262;30;20237;-75
2021/03/29 11:04:52;;;;;;;6.65;2.92;;;;;23.50;102471.00;;;;9617135;30;20618;-75
2021/03/29 11:09:53;;;;;;;4.40;2.30;;;;;23.50;102472.00;;;;9628680;30;20217;-75
2021/03/29 11:14:55;;;;;;;6.50;2.65;;;;;23.40;102470.00;;;;9617254;30;20212;-76
2021/03/29 11:19:56;;;;;;;4.93;2.67;;;;;23.50;102463.00;;;;9617122;30;20205;-75
2021/03/29 11:24:58;;;;;;;6.20;2.80;;;;;23.60;102463.00;;;;9618710;30;20643;-75
2021/03/29 11:29:59;;;;;;;5.15;2.78;;;;;23.70;102467.00;;;;9617331;30;20658;-76
2021/03/29 11:35:04;;;;;;;6.72;2.80;;;;;24.00;102472.00;;;;9616993;30;20950;-75
2021/03/29 11:40:06;;;;;;;5.85;2.95;;;;;24.20;102463.00;;;;9617807;30;20213;-75
2021/03/29 11:45:09;;;;;;;7.00;3.03;;;;;24.40;102467.00;;;;9621587;30;20256;-75
2021/03/29 11:50:15;;;;;;;4.75;1.83;;;;;24.50;102464.00;;;;9625303;30;20232;-75
2021/03/29 11:55:17;;;;;;;5.07;2.90;;;;;24.50;102464.00;;;;9638926;30;20224;-75
2021/03/29 12:05:46;;;;;;;8.70;2.78;;;;;24.30;102468.00;;;;9615949;30;20217;-75
2021/03/29 12:16:08;;;;;;;5.00;2.72;;;;;24.20;102458.00;;;;9617250;30;20658;-75
2021/03/29 12:21:16;;;;;;;4.40;2.67;;;;;24.40;102457.00;;;;9635622;30;20220;-76
2021/03/29 12:26:22;;;;;;;6.07;2.90;;;;;24.60;102458.00;;;;9637825;30;20610;-76
2021/03/29 12:31:23;;;;;;;6.45;2.80;;;;;24.60;102464.00;;;;9637492;30;20209;-75
2021/03/29 12:36:29;;;;;;;5.63;2.53;;;;;24.70;102457.00;;;;9637059;30;20228;-75
2021/03/29 12:41:37;;;;;;;7.22;3.38;;;;;25.00;102447.00;;;;9623382;30;20208;-76
2021/03/29 12:46:41;;;;;;;4.13;2.47;;;;;25.20;102449.00;;;;9608874;30;20220;-75
2021/03/29 12:51:44;;;;;;;4.82;3.03;;;;;25.20;102448.00;;;;9636344;30;20217;-76
2021/03/29 12:56:45;;;;;;;6.10;2.92;;;;;25.30;102449.00;;;;9607952;30;20236;-76
2021/03/29 13:01:47;;;;;;;4.65;3.03;;;;;25.20;102442.00;;;;9621946;30;20300;-75
2021/03/29 13:06:59;;;;;;;8.25;3.45;;;;;25.40;102441.00;;;;9608246;30;20233;-76
2021/03/29 13:12:03;;;;;;;4.70;3.05;;;;;25.50;102456.00;;;;9622133;30;20228;-76
2021/03/29 13:17:05;;;;;;;11.43;3.83;;;;;25.40;102449.00;;;;9607789;30;20205;-75
2021/03/29 13:22:06;;;;;;;8.88;3.95;;;;;25.40;102443.00;;;;9622377;30;20205;-76
2021/03/29 13:27:08;;;;;;;6.93;3.78;;;;;25.40;102437.00;;;;9607582;30;20264;-75
2021/03/29 13:32:11;;;;;;;8.10;3.63;;;;;25.40;102436.00;;;;9607460;30;20229;-75
2021/03/29 13:37:12;;;;;;;12.40;4.63;;;;;25.40;102429.00;;;;9607045;30;20224;-75
2021/03/29 13:42:19;;;;;;;14.65;4.40;;;;;25.70;102435.00;;;;9619354;30;20240;-75
2021/03/29 13:47:23;;;;;;;8.13;3.60;;;;;26.10;102433.00;;;;9621169;30;20300;-75
2021/03/29 13:52:24;;;;;;;6.38;3.58;;;;;26.30;102442.00;;;;9620577;30;20240;-75
2021/03/29 13:57:26;;;;;;;7.18;4.07;;;;;26.90;102441.00;;;;9635104;30;20247;-75
2021/03/29 14:02:27;;;;;;;8.48;4.50;;;;;27.90;102436.00;;;;9620100;30;20667;-76
2021/03/29 14:07:28;;;;;;;9.60;5.38;;;;;29.80;102430.00;;;;9605575;30;20217;-75
2021/03/29 14:12:30;;;;;;;7.60;4.50;;;;;30.70;102432.00;;;;9629188;30;20217;-75
2021/03/29 14:17:31;;;;;;;8.18;4.22;;;;;31.50;102427.00;;;;9621037;30;20208;-75
2021/03/29 14:22:33;;;;;;;6.03;4.80;;;;;32.10;102428.00;;;;9621235;30;20207;-76
2021/03/29 14:27:34;;;;;;;7.75;4.85;;;;;32.60;102432.00;;;;9614362;30;20291;-76
2021/03/29 14:32:36;;;;;;;10.75;4.82;;;;;32.80;102433.00;;;;9632560;30;20307;-76
2021/03/29 14:42:58;;;;;;;8.52;6.07;;;;;31.30;102445.00;;;;9618237;30;20207;-76
2021/03/29 14:47:59;;;;;;;12.27;5.97;;;;;31.80;102421.00;;;;9614319;30;20304;-76
2021/03/29 14:53:02;;;;;;;6.68;5.68;;;;;33.30;102411.00;;;;9627148;30;20284;-76
2021/03/29 14:58:12;;;;;;;7.78;5.82;;;;;33.10;102420.00;;;;9622333;30;20272;-76
2021/03/29 15:03:17;;;;;;;9.60;6.50;;;;;33.70;102416.00;;;;9621148;30;20209;-77
2021/03/29 15:08:18;;;;;;;9.65;6.70;;;;;33.30;102424.00;;;;9636757;30;20208;-77
2021/03/29 15:13:20;;;;;;;11.73;6.72;;;;;32.10;102431.00;;;;9632736;30;20220;-77
2021/03/29 15:18:22;;;;;;;9.40;6.60;;;;;33.50;102412.00;;;;9624220;30;20304;-76
2021/03/29 15:23:24;;;;;;;20.02;7.70;;;;;32.30;102426.00;;;;9631174;30;20212;-77
2021/03/29 15:28:25;;;;;;;10.10;7.45;;;;;30.10;102434.00;;;;9617699;30;20327;-77
2021/03/29 15:33:27;;;;;;;11.25;7.97;;;;;28.80;102423.00;;;;9636666;30;20212;-77
2021/03/29 15:38:28;;;;;;;13.90;8.45;;;;;27.80;102425.00;;;;9621803;30;20710;-77
2021/03/29 15:43:30;;;;;;;10.00;7.22;;;;;27.80;102430.00;;;;9616074;30;20228;-76
2021/03/29 15:48:31;;;;;;;11.00;7.45;;;;;27.20;102432.00;;;;9603198;30;20223;-77
2021/03/29 15:53:33;;;;;;;12.95;8.05;;;;;26.90;102441.00;;;;9617851;30;20525;-76
2021/03/29 15:58:37;;;;;;;15.90;8.10;;;;;25.30;102439.00;;;;9603040;30;20241;-76
2021/03/29 16:03:41;;;;;;;10.75;7.45;;;;;23.90;102437.00;;;;9594171;30;20295;-76
2021/03/29 16:09:02;;;;;;;10.02;7.95;;;;;23.30;102438.00;;;;9614009;30;20244;-76
2021/03/29 16:14:04;;;;;;;12.25;8.55;;;;;23.10;102436.00;;;;9616661;30;20307;-76
2021/03/29 16:19:05;;;;;;;13.98;9.20;;;;;22.50;102432.00;;;;9625315;30;20209;-76
2021/03/29 16:24:07;;;;;;;13.80;9.20;;;;;22.30;102437.00;;;;9594217;30;20271;-76
2021/03/29 16:29:08;;;;;;;14.68;9.00;;;;;22.00;102447.00;;;;9602733;30;20573;-76
2021/03/29 16:34:09;;;;;;;12.93;9.85;;;;;21.40;102439.00;;;;9643707;30;20759;-75
2021/03/29 16:39:11;;;;;;;18.33;10.63;;;;;21.00;102440.00;;;;9642189;30;20204;-76
2021/03/29 16:44:12;;;;;;;13.90;9.23;;;;;20.70;102440.00;;;;9625979;30;20259;-76
2021/03/29 16:49:14;;;;;;;15.10;10.00;;;;;20.40;102445.00;;;;9622932;30;20268;-76
2021/03/29 16:54:16;;;;;;;13.25;9.52;;;;;20.10;102441.00;;;;9608456;30;20312;-76
2021/03/29 16:59:18;;;;;;;15.20;9.88;;;;;20.00;102439.00;;;;9608885;30;20236;-76
2021/03/29 17:04:20;;;;;;;14.82;10.00;;;;;19.80;102439.00;;;;9608815;30;20748;-76
2021/03/29 17:09:21;;;;;;;15.45;10.88;;;;;19.50;102435.00;;;;9622937;30;20712;-76
2021/03/29 17:14:23;;;;;;;21.85;11.23;;;;;19.30;102434.00;;;;9608121;30;20228;-76
2021/03/29 17:19:24;;;;;;;16.33;10.65;;;;;19.10;102433.00;;;;9636707;30;20205;-76
2021/03/29 17:24:26;;;;;;;13.52;10.10;;;;;18.90;102444.00;;;;9635905;30;20236;-76
2021/03/29 17:29:39;;;;;;;14.60;10.48;;;;;18.60;102439.00;;;;9636067;30;20243;-76
2021/03/29 17:34:42;;;;;;;14.55;10.93;;;;;18.30;102448.00;;;;9621471;30;20220;-76
2021/03/29 17:39:44;;;;;;;15.40;11.00;;;;;18.00;102452.00;;;;9619672;30;20590;-76
2021/03/29 17:44:45;;;;;;;17.15;12.05;;;;;17.80;102455.00;;;;9599915;30;20253;-76
2021/03/29 17:49:47;;;;;;;18.95;12.75;;;;;17.50;102452.00;;;;9592924;30;20201;-76
2021/03/29 17:54:48;;;;;;;19.60;12.43;;;;;17.40;102453.00;;;;9606505;30;20256;-76
2021/03/29 17:59:50;;;;;;;17.65;12.77;;;;;17.20;102449.00;;;;9620254;30;20243;-76
2021/03/29 18:04:51;;;;;;;19.27;12.57;;;;;16.80;102464.00;;;;9607442;30;20209;-76
2021/03/29 18:09:53;;;;;;;19.30;12.73;;;;;16.50;102463.00;;;;9633844;30;20217;-76
2021/03/29 18:14:55;;;;;;;22.33;12.30;;;;;16.20;102461.00;;;;9620370;30;20231;-76
2021/03/29 18:20:04;;;;;;;18.83;12.07;;;;;15.90;102462.00;;;;9621038;30;20205;-76
2021/03/29 18:25:06;;;;;;;18.23;11.77;;;;;15.60;102469.00;;;;9619919;30;20201;-76
2021/03/29 18:30:09;;;;;;;18.50;11.23;;;;;15.40;102465.00;;;;9633539;30;20217;-76
2021/03/29 18:35:10;;;;;;;21.60;12.03;;;;;15.20;102475.00;;;;9619688;30;20272;-76
2021/03/29 18:40:12;;;;;;;22.37;12.23;;;;;15.00;102474.00;;;;9619039;30;20201;-76
2021/03/29 18:45:14;;;;;;;20.87;12.37;;;;;14.80;102479.00;;;;9633613;30;20264;-76
2021/03/29 18:50:15;;;;;;;21.90;13.27;;;;;14.60;102487.00;;;;9633913;30;20289;-76
2021/03/29 18:55:21;;;;;;;20.90;12.70;;;;;14.40;102487.00;;;;9632348;30;20272;-76
2021/03/29 19:00:37;;;;;;;23.80;13.73;;;;;14.30;102490.00;;;;9616475;30;20264;-76
2021/03/29 19:05:39;;;;;;;18.43;12.13;;;;;14.00;102489.00;;;;9618000;30;20205;-76
2021/03/29 19:10:41;;;;;;;19.70;12.33;;;;;13.70;102495.00;;;;9617770;30;20209;-76
2021/03/29 19:15:51;;;;;;;19.90;12.83;;;;;13.60;102500.00;;;;9617132;30;20602;-76
2021/03/29 19:20:57;;;;;;;22.63;13.60;;;;;13.50;102510.00;;;;9617872;30;20291;-75
2021/03/29 19:26:20;;;;;;;22.27;13.03;;;;;13.40;102516.00;;;;9617384;30;20193;-76
2021/03/29 19:31:22;;;;;;;31.03;13.83;;;;;13.30;102507.00;;;;9615591;30;20209;-76
2021/03/29 19:36:26;;;;;;;23.20;13.20;;;;;13.10;102514.00;;;;9618958;30;20248;-75
2021/03/29 19:41:27;;;;;;;21.97;12.97;;;;;13.00;102514.00;;;;9582860;30;20205;-76
2021/03/29 19:46:30;;;;;;;27.00;14.60;;;;;12.80;102523.00;;;;9583115;30;20655;-76
2021/03/29 19:51:32;;;;;;;25.77;15.73;;;;;12.60;102525.00;;;;9569297;30;20660;-75
2021/03/29 19:56:33;;;;;;;23.77;13.60;;;;;12.40;102533.00;;;;9582212;31;20591;-76
2021/03/29 20:01:43;;;;;;;22.27;14.03;;;;;12.30;102525.00;;;;9594616;30;20635;-76
2021/03/29 20:11:48;;;;;;;25.00;15.30;;;;;12.00;102526.00;;;;9603156;30;20210;-76
2021/03/29 20:16:50;;;;;;;23.53;14.67;;;;;11.80;102531.00;;;;9603549;30;20251;-76
2021/03/29 20:21:53;;;;;;;24.77;14.17;;;;;11.80;102536.00;;;;9590113;30;20213;-76
2021/03/29 20:26:54;;;;;;;26.40;14.33;;;;;11.80;102527.00;;;;9590622;31;20202;-76
2021/03/29 20:31:56;;;;;;;22.93;13.77;;;;;11.80;102532.00;;;;9588530;31;20213;-76
2021/03/29 20:37:07;;;;;;;23.70;14.27;;;;;11.80;102531.00;;;;9589781;30;20210;-76
2021/03/29 20:42:09;;;;;;;25.80;14.57;;;;;11.70;102532.00;;;;9602274;30;20206;-76
2021/03/29 20:47:10;;;;;;;21.03;13.30;;;;;11.50;102531.00;;;;9616870;30;20575;-76
2021/03/29 20:52:12;;;;;;;21.83;13.67;;;;;11.50;102528.00;;;;9615977;30;20213;-76
2021/03/29 20:57:13;;;;;;;23.37;14.07;;;;;11.50;102536.00;;;;9616071;30;20244;-76
2021/03/29 21:02:15;;;;;;;23.30;14.03;;;;;11.40;102529.00;;;;9601908;30;20257;-76
2021/03/29 21:07:16;;;;;;;22.47;14.17;;;;;11.30;102530.00;;;;9601358;30;20265;-76
2021/03/29 21:12:18;;;;;;;25.90;15.87;;;;;11.40;102527.00;;;;9618094;30;20213;-76
2021/03/29 21:17:19;;;;;;;24.57;14.93;;;;;11.40;102525.00;;;;9606604;30;20212;-76
2021/03/29 21:22:20;;;;;;;24.47;16.10;;;;;11.40;102527.00;;;;9608087;30;20950;-76
2021/03/29 21:27:22;;;;;;;25.23;15.63;;;;;11.30;102527.00;;;;9794397;25;20228;-76
2021/03/29 21:32:23;;;;;;;26.57;14.97;;;;;11.20;102528.00;;;;9656209;30;20208;-76
2021/03/29 21:37:31;;;;;;;25.10;15.17;;;;;11.20;102524.00;;;;9670476;30;20224;-76
2021/03/29 21:42:32;;;;;;;26.73;15.83;;;;;11.20;102535.00;;;;9656387;30;20251;-76
2021/03/29 21:47:35;;;;;;;25.67;16.07;;;;;11.20;102532.00;;;;9656199;30;20217;-76
2021/03/29 21:52:37;;;;;;;30.10;15.47;;;;;11.10;102535.00;;;;9627784;30;20228;-76
2021/03/29 21:57:38;;;;;;;26.10;15.90;;;;;11.10;102529.00;;;;9655699;30;20236;-77
2021/03/29 22:02:42;;;;;;;27.93;15.83;;;;;11.20;102532.00;;;;9640913;30;20215;-76
2021/03/29 22:07:43;;;;;;;30.17;16.03;;;;;11.10;102527.00;;;;9655112;30;20267;-76
2021/03/29 22:12:45;;;;;;;24.97;15.20;;;;;11.00;102532.00;;;;9641345;30;20349;-76
2021/03/29 22:17:46;;;;;;;26.23;14.40;;;;;11.00;102533.00;;;;9669046;30;20291;-76
2021/03/29 22:22:48;;;;;;;30.17;15.73;;;;;11.00;102546.00;;;;9654912;30;20275;-76
2021/03/29 22:28:00;;;;;;;33.20;16.33;;;;;10.90;102538.00;;;;9682300;30;20291;-76
2021/03/29 22:33:09;;;;;;;28.50;16.00;;;;;10.90;102536.00;;;;9689765;30;20986;-76
2021/03/29 22:38:37;;;;;;;31.93;17.90;;;;;11.00;102539.00;;;;9690487;30;20266;-77
2021/03/29 22:43:37;;;;;;;33.30;18.40;;;;;10.90;102541.00;;;;9689646;30;20211;-77
2021/03/29 22:48:40;;;;;;;32.40;18.43;;;;;10.90;102542.00;;;;9690688;30;20207;-76
2021/03/29 22:53:43;;;;;;;31.87;18.63;;;;;10.80;102543.00;;;;9703534;30;20270;-77
2021/03/29 22:58:46;;;;;;;31.97;17.93;;;;;10.70;102540.00;;;;9689346;30;20680;-77
2021/03/29 23:03:47;;;;;;;33.63;19.30;;;;;10.70;102536.00;;;;9646938;30;20215;-77
2021/03/29 23:08:48;;;;;;;35.53;18.60;;;;;10.70;102536.00;;;;9703184;30;20756;-77
2021/03/29 23:13:50;;;;;;;32.57;19.00;;;;;10.70;102533.00;;;;9688512;30;20242;-76
2021/03/29 23:18:51;;;;;;;31.70;19.07;;;;;10.50;102539.00;;;;9689091;30;20310;-76
2021/03/29 23:23:53;;;;;;;33.23;18.80;;;;;10.30;102544.00;;;;9702971;30;20239;-76
2021/03/29 23:28:54;;;;;;;32.73;18.63;;;;;10.10;102532.00;;;;9702890;30;20204;-76
2021/03/29 23:33:56;;;;;;;33.33;18.77;;;;;10.00;102541.00;;;;9688049;30;20240;-76
2021/03/29 23:38:57;;;;;;;32.50;18.33;;;;;9.80;102542.00;;;;9673174;30;20815;-76
2021/03/29 23:43:59;;;;;;;30.33;16.93;;;;;9.30;102541.00;;;;9659849;30;20252;-76
2021/03/29 23:49:03;;;;;;;30.77;17.13;;;;;9.00;102544.00;;;;9673658;30;20369;-76
2021/03/29 23:54:05;;;;;;;31.03;17.47;;;;;8.80;102547.00;;;;9673192;30;20248;-76
2021/03/29 23:59:06;;;;;;;31.60;18.07;;;;;8.60;102549.00;;;;9687993;30;20215;-76
